Time;durP1;ratioP1;P1;durP2;ratioP2;P2;SDS_P1;SDS_P2;PMS_P1;PMS_P2;Temp;Humidity;BMP_temperature;BMP_pressure;BME280_temperature;BME280_humidity;BME280_pressure;Samples;Min_cycle;Max_cycle;Signal;HPM_P1;HPM_P2
2022/12/20 00:01:29;;;;;;;1.13;0.50;;;18.30;65.50;;;;;;4976745;28;20034;-68
2022/12/20 00:03:57;;;;;;;1.52;0.45;;;18.30;65.50;;;;;;4976886;28;20528;-68
2022/12/20 00:06:23;;;;;;;1.48;0.60;;;18.30;65.60;;;;;;4977148;28;20029;-68
2022/12/20 00:08:59;;;;;;;0.55;0.43;;;18.30;65.50;;;;;;4976654;28;20046;-69
2022/12/20 00:11:25;;;;;;;0.63;0.40;;;18.40;65.60;;;;;;4977866;28;20105;-68
2022/12/20 00:13:52;;;;;;;0.93;0.40;;;18.40;65.60;;;;;;4993942;28;20055;-68
2022/12/20 00:16:19;;;;;;;1.15;0.75;;;18.40;65.60;;;;;;4976854;28;20031;-68
2022/12/20 00:18:45;;;;;;;0.70;0.50;;;18.30;65.60;;;;;;4976471;28;20030;-68
2022/12/20 00:21:11;;;;;;;0.80;0.45;;;18.30;65.50;;;;;;4994303;28;20027;-69
2022/12/20 00:23:37;;;;;;;0.68;0.40;;;18.40;65.60;;;;;;4976450;28;20026;-68
2022/12/20 00:26:23;;;;;;;1.83;0.40;;;18.40;65.60;;;;;;4976716;28;20560;-68
2022/12/20 00:28:49;;;;;;;0.70;0.60;;;18.30;65.50;;;;;;4976418;28;20465;-68
2022/12/20 00:31:15;;;;;;;1.15;0.40;;;18.40;65.60;;;;;;4993978;28;20029;-68
2022/12/20 00:33:46;;;;;;;0.82;0.50;;;18.30;65.50;;;;;;4976230;28;20085;-69
2022/12/20 00:36:11;;;;;;;0.77;0.47;;;18.40;65.50;;;;;;4976501;28;20026;-68
2022/12/20 00:38:37;;;;;;;0.40;0.30;;;18.30;65.40;;;;;;4976215;28;20057;-68
2022/12/20 00:41:10;;;;;;;0.70;0.40;;;18.40;65.50;;;;;;4993719;28;20023;-68
2022/12/20 00:43:36;;;;;;;2.13;0.60;;;18.40;65.50;;;;;;4976736;28;20057;-68
2022/12/20 00:46:02;;;;;;;1.42;0.70;;;18.30;65.40;;;;;;4976362;28;20015;-68
2022/12/20 00:48:28;;;;;;;1.15;0.50;;;18.40;65.50;;;;;;4975858;28;20022;-68
2022/12/20 00:51:07;;;;;;;0.60;0.50;;;18.40;65.50;;;;;;4976133;28;20607;-68
2022/12/20 00:53:33;;;;;;;2.05;0.50;;;18.30;65.50;;;;;;4993200;28;20030;-68
2022/12/20 00:55:59;;;;;;;0.95;0.50;;;18.30;65.40;;;;;;4976003;28;20084;-68
2022/12/20 00:58:24;;;;;;;2.22;0.60;;;18.40;65.50;;;;;;4975855;28;20393;-68
2022/12/20 01:00:50;;;;;;;0.98;0.50;;;18.40;65.50;;;;;;4992991;28;20397;-68
2022/12/20 01:03:17;;;;;;;2.25;0.45;;;18.30;65.40;;;;;;4993160;28;20109;-68
2022/12/20 01:05:56;;;;;;;1.10;0.50;;;18.30;65.40;;;;;;4993057;28;20029;-68
2022/12/20 01:08:22;;;;;;;0.52;0.40;;;18.40;65.50;;;;;;4975974;28;20489;-68
2022/12/20 01:11:11;;;;;;;0.95;0.40;;;18.40;66.50;;;;;;4993120;28;20029;-68
2022/12/20 01:13:39;;;;;;;1.92;0.40;;;18.40;65.50;;;;;;4976254;28;20520;-68
2022/12/20 01:16:12;;;;;;;0.88;0.47;;;18.40;65.40;;;;;;4975790;28;20022;-68
2022/12/20 01:18:38;;;;;;;0.80;0.30;;;18.40;65.40;;;;;;4975652;28;20409;-68
2022/12/20 01:21:09;;;;;;;1.05;0.60;;;18.40;65.40;;;;;;4975801;28;20029;-68
2022/12/20 01:23:35;;;;;;;1.00;0.40;;;18.30;65.40;;;;;;4975520;28;20023;-68
2022/12/20 01:26:03;;;;;;;1.13;0.60;;;18.40;65.40;;;;;;4974939;28;20393;-68
2022/12/20 01:28:29;;;;;;;1.00;0.50;;;18.40;65.40;;;;;;4975661;28;20034;-68
2022/12/20 01:30:54;;;;;;;0.50;0.30;;;18.40;65.50;;;;;;4959144;28;20026;-68
2022/12/20 01:33:20;;;;;;;0.50;0.50;;;18.40;65.40;;;;;;4975709;28;20040;-68
2022/12/20 01:36:03;;;;;;;1.27;0.52;;;18.40;65.40;;;;;;4993192;28;20073;-68
2022/12/20 01:38:29;;;;;;;0.32;0.30;;;18.40;65.40;;;;;;4975505;28;20022;-68
2022/12/20 01:40:56;;;;;;;1.27;0.45;;;18.40;65.90;;;;;;4992864;28;20382;-68
2022/12/20 01:43:22;;;;;;;1.17;0.45;;;18.40;65.40;;;;;;4975507;28;20471;-68
2022/12/20 01:45:47;;;;;;;1.38;0.50;;;18.40;65.40;;;;;;4992631;28;20105;-69
2022/12/20 01:48:20;;;;;;;1.65;0.43;;;18.40;65.40;;;;;;4992881;28;20023;-68
2022/12/20 01:50:46;;;;;;;0.70;0.40;;;18.40;65.40;;;;;;4975294;28;20046;-69
2022/12/20 01:53:12;;;;;;;1.23;0.47;;;18.40;65.40;;;;;;4975413;28;20033;-68
2022/12/20 01:55:38;;;;;;;0.95;0.50;;;18.40;65.40;;;;;;4975298;28;20038;-68
2022/12/20 01:58:05;;;;;;;1.25;0.60;;;18.40;65.40;;;;;;4975509;28;20420;-68
2022/12/20 02:00:30;;;;;;;1.38;0.60;;;18.40;65.40;;;;;;4975183;28;20022;-68
2022/12/20 02:02:58;;;;;;;0.80;0.50;;;18.40;65.30;;;;;;4992498;28;20038;-68
2022/12/20 02:05:23;;;;;;;1.15;0.40;;;18.40;65.30;;;;;;4975130;28;20073;-68
2022/12/20 02:07:50;;;;;;;1.20;0.63;;;18.40;65.30;;;;;;4992682;28;20035;-69
2022/12/20 02:10:16;;;;;;;1.05;0.50;;;18.40;65.40;;;;;;4975094;28;20096;-68
2022/12/20 02:12:43;;;;;;;1.13;0.50;;;18.40;65.40;;;;;;4975118;28;20456;-68
2022/12/20 02:15:18;;;;;;;1.30;0.32;;;18.40;65.30;;;;;;4975221;28;20085;-68
2022/12/20 02:17:44;;;;;;;0.93;0.60;;;18.40;65.30;;;;;;4992510;28;20061;-68
2022/12/20 02:20:18;;;;;;;0.43;0.40;;;18.40;65.30;;;;;;4992571;28;20516;-68
2022/12/20 02:22:49;;;;;;;1.35;0.50;;;18.40;65.30;;;;;;4975109;28;20027;-68
2022/12/20 02:25:37;;;;;;;0.95;0.50;;;18.40;65.40;;;;;;4992619;28;20034;-68
2022/12/20 02:28:04;;;;;;;1.23;0.57;;;18.40;65.30;;;;;;4992312;28;20026;-68
2022/12/20 02:30:36;;;;;;;1.10;0.50;;;18.40;65.30;;;;;;4975021;28;20026;-69
2022/12/20 02:33:03;;;;;;;0.50;0.30;;;18.40;65.30;;;;;;4975130;28;20032;-68
2022/12/20 02:35:31;;;;;;;1.27;0.47;;;18.40;65.30;;;;;;4974903;28;20033;-68
2022/12/20 02:37:58;;;;;;;0.75;0.35;;;18.40;65.30;;;;;;4977308;28;20026;-69
2022/12/20 02:40:35;;;;;;;1.13;0.40;;;18.40;65.30;;;;;;4978509;28;20026;-68
2022/12/20 02:43:03;;;;;;;0.35;0.22;;;18.40;65.30;;;;;;4979243;28;20366;-68
2022/12/20 02:45:33;;;;;;;2.08;0.57;;;18.40;65.30;;;;;;4978515;28;20022;-68
2022/12/20 02:48:07;;;;;;;1.38;0.50;;;18.40;65.30;;;;;;4978611;28;20031;-68
2022/12/20 02:50:41;;;;;;;2.22;0.50;;;18.40;65.30;;;;;;4978247;28;20069;-68
2022/12/20 02:53:07;;;;;;;0.70;0.40;;;18.40;65.30;;;;;;4978250;28;20420;-68
2022/12/20 02:55:48;;;;;;;0.93;0.40;;;18.40;65.30;;;;;;4977980;28;20022;-68
2022/12/20 02:58:22;;;;;;;1.00;0.50;;;18.40;65.20;;;;;;4995478;28;20030;-68
2022/12/20 03:00:47;;;;;;;0.70;0.43;;;18.40;65.30;;;;;;4978025;28;20034;-68
2022/12/20 03:03:22;;;;;;;1.52;0.68;;;18.40;65.20;;;;;;4978134;28;20027;-68
2022/12/20 03:05:48;;;;;;;0.90;0.47;;;18.40;65.20;;;;;;4979118;28;20097;-68
2022/12/20 03:08:14;;;;;;;0.80;0.50;;;18.40;65.20;;;;;;4977821;28;20073;-69
2022/12/20 03:10:39;;;;;;;0.57;0.40;;;18.40;65.20;;;;;;4977892;28;20433;-68
2022/12/20 03:13:05;;;;;;;0.80;0.38;;;18.50;65.20;;;;;;4995064;28;20031;-68
2022/12/20 03:15:30;;;;;;;0.73;0.40;;;18.40;65.10;;;;;;4995439;28;20022;-68
2022/12/20 03:17:56;;;;;;;0.50;0.47;;;18.50;65.20;;;;;;4978046;28;20393;-68
2022/12/20 03:20:22;;;;;;;0.90;0.40;;;18.40;65.20;;;;;;4977534;28;20524;-68
2022/12/20 03:22:48;;;;;;;0.98;0.38;;;18.40;65.10;;;;;;4977555;28;20481;-68
2022/12/20 03:25:13;;;;;;;0.73;0.40;;;18.50;65.20;;;;;;4977896;28;20037;-68
2022/12/20 03:27:39;;;;;;;0.95;0.40;;;18.50;65.20;;;;;;4994687;28;20030;-68
2022/12/20 03:30:05;;;;;;;0.85;0.45;;;18.40;65.10;;;;;;4994945;28;20027;-68
2022/12/20 03:32:31;;;;;;;0.47;0.38;;;18.50;65.10;;;;;;4994972;28;20026;-69
2022/12/20 03:34:57;;;;;;;0.85;0.40;;;18.40;65.00;;;;;;4994776;28;20121;-68
2022/12/20 03:37:23;;;;;;;0.63;0.32;;;18.50;65.10;;;;;;4994690;28;20022;-68
2022/12/20 03:39:48;;;;;;;0.63;0.30;;;18.50;65.10;;;;;;4994731;28;20473;-68
2022/12/20 03:42:14;;;;;;;0.40;0.40;;;18.50;65.10;;;;;;4994476;28;20022;-68
2022/12/20 03:44:40;;;;;;;0.20;0.20;;;18.50;65.00;;;;;;4994650;28;20101;-69
2022/12/20 03:47:05;;;;;;;0.40;0.30;;;18.50;65.00;;;;;;4994791;28;20030;-68
2022/12/20 03:49:31;;;;;;;0.28;0.25;;;18.50;65.00;;;;;;4993755;28;20022;-68
2022/12/20 03:51:57;;;;;;;0.80;0.40;;;18.50;65.00;;;;;;4977298;28;20034;-68
2022/12/20 03:54:22;;;;;;;0.50;0.30;;;18.50;65.00;;;;;;4994471;28;20027;-68
2022/12/20 03:56:48;;;;;;;0.70;0.30;;;18.50;65.00;;;;;;4977009;28;20066;-68
2022/12/20 03:59:13;;;;;;;0.45;0.30;;;18.50;65.00;;;;;;4994527;28;20068;-69
2022/12/20 04:01:39;;;;;;;0.57;0.30;;;18.50;65.00;;;;;;4994192;28;20404;-69
2022/12/20 04:04:06;;;;;;;1.08;0.38;;;18.50;64.90;;;;;;4976943;28;20022;-68
2022/12/20 04:06:32;;;;;;;0.93;0.40;;;18.50;65.00;;;;;;4977021;28;20106;-68
2022/12/20 04:08:57;;;;;;;0.20;0.20;;;18.50;64.90;;;;;;4976788;28;20133;-68
2022/12/20 04:11:23;;;;;;;0.73;0.30;;;18.50;64.90;;;;;;4994093;28;20034;-68
2022/12/20 04:13:50;;;;;;;0.93;0.35;;;18.50;65.00;;;;;;4994214;28;20035;-68
2022/12/20 04:16:17;;;;;;;0.20;0.20;;;18.50;64.90;;;;;;4994067;28;20022;-68
2022/12/20 04:18:42;;;;;;;0.63;0.30;;;18.50;64.90;;;;;;4976824;28;20018;-68
2022/12/20 04:21:08;;;;;;;0.52;0.30;;;18.50;64.90;;;;;;4994114;28;20034;-68
2022/12/20 04:23:35;;;;;;;0.60;0.30;;;18.50;64.80;;;;;;4976344;28;20026;-69
2022/12/20 04:26:01;;;;;;;1.52;0.40;;;18.50;64.90;;;;;;4976478;28;20112;-68
2022/12/20 04:28:27;;;;;;;0.43;0.30;;;18.50;64.90;;;;;;4976657;28;20024;-68
2022/12/20 04:30:53;;;;;;;0.65;0.30;;;18.50;64.90;;;;;;4993835;28;20185;-69
2022/12/20 04:33:19;;;;;;;0.50;0.30;;;18.50;64.90;;;;;;4976356;28;20568;-68
2022/12/20 04:35:44;;;;;;;0.60;0.30;;;18.50;65.00;;;;;;4993710;28;20547;-68
2022/12/20 04:38:10;;;;;;;0.43;0.22;;;18.50;64.90;;;;;;4976161;28;20560;-68
2022/12/20 04:40:35;;;;;;;0.32;0.30;;;18.50;64.90;;;;;;4976339;28;20416;-68
2022/12/20 04:43:01;;;;;;;0.40;0.20;;;18.50;65.00;;;;;;4993526;28;20057;-68
2022/12/20 04:45:27;;;;;;;0.32;0.30;;;18.50;64.90;;;;;;4993697;28;20413;-68
2022/12/20 04:47:52;;;;;;;0.45;0.28;;;18.50;64.90;;;;;;4975968;28;20477;-68
2022/12/20 04:50:18;;;;;;;1.10;0.40;;;18.50;64.90;;;;;;4993438;28;20042;-68
2022/12/20 04:55:28;;;;;;;0.20;0.17;;;18.50;64.90;;;;;;4978700;28;20033;-68
2022/12/20 04:57:54;;;;;;;0.88;0.20;;;18.50;64.80;;;;;;4976066;28;20026;-69
2022/12/20 05:00:19;;;;;;;0.60;0.22;;;18.50;64.80;;;;;;4993366;28;20034;-68
2022/12/20 05:02:45;;;;;;;0.40;0.30;;;18.50;64.80;;;;;;4993004;28;20025;-68
2022/12/20 05:05:11;;;;;;;0.45;0.20;;;18.50;64.80;;;;;;4959639;28;20026;-68
2022/12/20 05:07:37;;;;;;;0.50;0.38;;;18.50;64.80;;;;;;4975570;28;20022;-68
2022/12/20 05:10:03;;;;;;;0.73;0.20;;;18.50;64.80;;;;;;4993075;28;20125;-68
2022/12/20 05:12:28;;;;;;;0.47;0.25;;;18.50;64.80;;;;;;4993063;28;20054;-68
2022/12/20 05:14:54;;;;;;;0.55;0.30;;;18.50;64.80;;;;;;4992835;28;20061;-68
2022/12/20 05:17:20;;;;;;;0.60;0.20;;;18.50;64.80;;;;;;4993279;28;20057;-69
2022/12/20 05:19:46;;;;;;;0.35;0.25;;;18.50;64.80;;;;;;4975663;28;20030;-68
2022/12/20 05:27:39;;;;;;;2.08;0.35;;;18.50;64.70;;;;;;4992986;28;20029;-68
2022/12/20 05:30:05;;;;;;;0.60;0.20;;;18.50;64.80;;;;;;4993050;28;20018;-68
2022/12/20 05:32:31;;;;;;;0.30;0.20;;;18.50;65.80;;;;;;4992900;28;20097;-68
2022/12/20 05:34:56;;;;;;;0.77;0.30;;;18.50;64.70;;;;;;4992843;28;20129;-69
2022/12/20 05:37:22;;;;;;;0.47;0.28;;;18.50;64.80;;;;;;4992685;28;20053;-68
2022/12/20 05:39:49;;;;;;;0.68;0.30;;;18.50;64.80;;;;;;4992864;28;20443;-68
2022/12/20 05:42:14;;;;;;;0.65;0.30;;;18.50;64.70;;;;;;4992808;28;20101;-69
2022/12/20 05:44:40;;;;;;;0.38;0.22;;;18.50;64.70;;;;;;4975458;28;20114;-68
2022/12/20 05:47:06;;;;;;;0.93;0.22;;;18.50;64.70;;;;;;4992867;28;20030;-68
2022/12/20 05:49:31;;;;;;;0.47;0.30;;;18.50;64.70;;;;;;4992801;28;20027;-68
2022/12/20 05:51:57;;;;;;;1.20;0.38;;;18.50;64.70;;;;;;4992487;28;20019;-68
2022/12/20 05:54:24;;;;;;;0.30;0.20;;;18.50;64.70;;;;;;4992691;28;20034;-69
2022/12/20 05:56:49;;;;;;;0.68;0.30;;;18.50;64.70;;;;;;4992386;28;20485;-69
2022/12/20 05:59:16;;;;;;;1.65;0.25;;;18.50;64.70;;;;;;4993077;28;20033;-68
2022/12/20 06:01:42;;;;;;;0.20;0.20;;;18.50;64.70;;;;;;4992495;28;20468;-68
2022/12/20 06:04:08;;;;;;;0.95;0.40;;;18.50;64.70;;;;;;4992617;28;20105;-68
2022/12/20 06:06:33;;;;;;;0.70;0.30;;;18.50;64.70;;;;;;4992537;28;20018;-68
2022/12/20 06:09:00;;;;;;;1.13;0.30;;;18.50;64.70;;;;;;4992414;28;20117;-68
2022/12/20 06:11:25;;;;;;;0.50;0.17;;;18.50;64.70;;;;;;4992628;28;20019;-68
2022/12/20 06:13:51;;;;;;;0.85;0.10;;;18.50;64.70;;;;;;4978795;28;20041;-68
2022/12/20 06:16:19;;;;;;;1.02;0.25;;;18.50;64.60;;;;;;4996407;28;20037;-68
2022/12/20 06:18:45;;;;;;;0.55;0.30;;;18.50;64.70;;;;;;4996236;28;20045;-68
2022/12/20 06:21:10;;;;;;;0.80;0.30;;;18.50;64.70;;;;;;4996063;28;20027;-68
2022/12/20 06:23:36;;;;;;;1.23;0.30;;;18.50;64.60;;;;;;4996120;28;20041;-68
2022/12/20 06:26:03;;;;;;;0.68;0.30;;;18.50;64.60;;;;;;4996079;28;20054;-69
2022/12/20 06:28:29;;;;;;;1.08;0.30;;;18.50;64.70;;;;;;4979287;28;20018;-68
2022/12/20 06:30:55;;;;;;;0.90;0.30;;;18.50;64.60;;;;;;4978827;28;20019;-68
2022/12/20 06:33:21;;;;;;;0.10;0.10;;;18.50;64.60;;;;;;4978867;28;20454;-68
2022/12/20 06:35:48;;;;;;;0.98;0.28;;;18.50;64.50;;;;;;4995666;28;20054;-68
2022/12/20 06:38:14;;;;;;;0.25;0.10;;;18.50;64.50;;;;;;4978573;28;20048;-68
2022/12/20 06:40:40;;;;;;;0.63;0.30;;;18.50;64.50;;;;;;4978366;28;20496;-68
2022/12/20 06:43:05;;;;;;;0.30;0.30;;;18.50;64.60;;;;;;4996066;28;20109;-69
2022/12/20 06:45:31;;;;;;;0.85;0.30;;;18.50;64.60;;;;;;4995845;28;20397;-69
2022/12/20 06:47:57;;;;;;;0.30;0.20;;;18.50;64.50;;;;;;4995774;28;20026;-69
2022/12/20 06:50:23;;;;;;;0.10;0.10;;;18.50;64.60;;;;;;4978231;28;20085;-69
2022/12/20 06:52:48;;;;;;;0.77;0.20;;;18.50;64.50;;;;;;4978061;28;20088;-69
2022/12/20 06:55:14;;;;;;;0.75;0.30;;;18.50;64.50;;;;;;4995828;28;20014;-68
2022/12/20 06:57:40;;;;;;;0.93;0.20;;;18.50;64.50;;;;;;4978235;28;20109;-68
2022/12/20 07:00:07;;;;;;;0.28;0.10;;;18.50;64.50;;;;;;4995650;28;20106;-69
2022/12/20 07:02:33;;;;;;;0.68;0.20;;;18.50;64.50;;;;;;4995412;28;20026;-69
2022/12/20 07:04:58;;;;;;;0.73;0.30;;;18.50;64.50;;;;;;4978151;28;20451;-69
2022/12/20 07:07:24;;;;;;;0.13;0.13;;;18.50;64.50;;;;;;4978111;28;20037;-69
2022/12/20 07:09:50;;;;;;;0.75;0.28;;;18.50;65.50;;;;;;4995121;28;20096;-69
2022/12/20 07:12:16;;;;;;;0.20;0.10;;;18.50;64.40;;;;;;4995446;28;20030;-68
2022/12/20 07:14:42;;;;;;;0.57;0.17;;;18.50;64.50;;;;;;4977814;28;20030;-69
2022/12/20 07:17:07;;;;;;;0.43;0.30;;;18.40;64.40;;;;;;4978068;28;20073;-69
2022/12/20 07:19:35;;;;;;;0.43;0.10;;;18.50;64.40;;;;;;4994955;28;20020;-68
2022/12/20 07:22:01;;;;;;;0.65;0.20;;;18.50;64.40;;;;;;4977765;28;20437;-69
2022/12/20 07:24:26;;;;;;;0.45;0.20;;;18.50;64.40;;;;;;4994123;28;20031;-69
2022/12/20 07:26:52;;;;;;;0.82;0.10;;;18.50;64.40;;;;;;4995057;28;20026;-69
2022/12/20 07:29:18;;;;;;;0.30;0.20;;;18.50;64.50;;;;;;4995213;28;20500;-69
2022/12/20 07:31:43;;;;;;;0.55;0.20;;;18.50;64.40;;;;;;4977565;28;20088;-68
2022/12/20 07:34:09;;;;;;;0.52;0.20;;;18.50;64.50;;;;;;4994787;28;20034;-68
2022/12/20 07:36:35;;;;;;;0.22;0.20;;;18.50;64.40;;;;;;4995008;28;20104;-69
2022/12/20 07:39:01;;;;;;;0.30;0.20;;;18.50;64.40;;;;;;4977438;28;20054;-69
2022/12/20 07:41:26;;;;;;;0.73;0.32;;;18.50;64.40;;;;;;4977561;28;20034;-69
2022/12/20 07:43:52;;;;;;;0.50;0.30;;;18.50;64.30;;;;;;4994661;28;20033;-69
2022/12/20 07:46:18;;;;;;;1.00;0.25;;;18.50;64.40;;;;;;4994769;28;20030;-68
2022/12/20 07:48:43;;;;;;;1.17;0.22;;;18.50;64.40;;;;;;4977339;28;20042;-69
2022/12/20 07:51:11;;;;;;;0.57;0.10;;;18.50;64.40;;;;;;4977092;28;20022;-69
2022/12/20 07:53:39;;;;;;;0.17;0.10;;;18.50;64.40;;;;;;4994582;28;20034;-68
2022/12/20 07:56:05;;;;;;;0.38;0.20;;;18.50;64.40;;;;;;4977313;28;20035;-69
2022/12/20 07:58:30;;;;;;;0.55;0.20;;;18.50;64.30;;;;;;4977474;28;20033;-68
2022/12/20 08:00:56;;;;;;;0.38;0.30;;;18.50;64.30;;;;;;4976810;28;20043;-69
2022/12/20 08:03:35;;;;;;;0.45;0.22;;;18.50;64.30;;;;;;4976776;28;20030;-69
2022/12/20 08:06:02;;;;;;;0.75;0.10;;;18.50;64.30;;;;;;4977462;28;20046;-69
2022/12/20 08:08:29;;;;;;;0.35;0.10;;;18.50;64.30;;;;;;4994221;28;20097;-68
2022/12/20 08:10:54;;;;;;;0.20;0.20;;;18.50;64.30;;;;;;4976843;28;20444;-69
2022/12/20 08:13:20;;;;;;;0.60;0.30;;;18.50;64.20;;;;;;4976947;28;20031;-69
2022/12/20 08:15:46;;;;;;;0.30;0.20;;;18.50;65.20;;;;;;4993814;28;20058;-69
2022/12/20 08:18:11;;;;;;;0.38;0.20;;;18.50;64.20;;;;;;4976820;28;20023;-68
2022/12/20 08:20:37;;;;;;;0.38;0.22;;;18.50;64.20;;;;;;4994073;28;20030;-69
2022/12/20 08:23:03;;;;;;;0.60;0.10;;;18.50;64.20;;;;;;4976547;28;20027;-68
2022/12/20 08:25:28;;;;;;;0.10;0.10;;;18.50;64.20;;;;;;4976594;28;20045;-69
2022/12/20 08:27:54;;;;;;;0.25;0.20;;;18.50;64.20;;;;;;4993875;28;20023;-69
2022/12/20 08:30:20;;;;;;;0.38;0.13;;;18.50;64.20;;;;;;4976438;28;20034;-69
2022/12/20 08:32:46;;;;;;;0.52;0.30;;;18.50;64.20;;;;;;4993837;28;20451;-69
2022/12/20 08:35:11;;;;;;;0.60;0.13;;;18.50;64.20;;;;;;4993544;28;20053;-69
2022/12/20 08:37:37;;;;;;;0.70;0.25;;;18.50;64.20;;;;;;4976545;28;20602;-69
2022/12/20 08:40:03;;;;;;;0.20;0.10;;;18.50;64.10;;;;;;4993470;28;20052;-68
2022/12/20 08:42:29;;;;;;;0.47;0.17;;;18.50;64.10;;;;;;4993521;28;20173;-69
2022/12/20 08:44:55;;;;;;;0.30;0.20;;;18.50;64.20;;;;;;4976056;28;20109;-69
2022/12/20 08:47:20;;;;;;;0.80;0.20;;;18.50;64.10;;;;;;4976245;28;20050;-69
2022/12/20 08:49:46;;;;;;;0.52;0.22;;;18.50;64.20;;;;;;4993643;28;20389;-68
2022/12/20 08:52:11;;;;;;;0.63;0.20;;;18.50;64.20;;;;;;4976247;28;20483;-69
2022/12/20 08:54:37;;;;;;;0.20;0.20;;;18.50;64.10;;;;;;4993321;28;20090;-68
2022/12/20 08:57:03;;;;;;;0.38;0.15;;;18.50;64.20;;;;;;4993410;28;20404;-68
2022/12/20 08:59:28;;;;;;;0.40;0.20;;;18.50;64.10;;;;;;4993131;28;20440;-69
2022/12/20 09:01:54;;;;;;;1.40;0.22;;;18.50;64.10;;;;;;4993252;28;20026;-69
2022/12/20 09:04:20;;;;;;;0.10;0.10;;;18.50;64.00;;;;;;4993313;28;20106;-69
2022/12/20 09:06:46;;;;;;;0.55;0.30;;;18.50;64.00;;;;;;4993265;28;20480;-69
2022/12/20 09:09:12;;;;;;;0.17;0.10;;;18.50;64.00;;;;;;4975651;28;20050;-68
2022/12/20 09:11:38;;;;;;;0.00;0.00;;;18.50;64.00;;;;;;4993274;28;20548;-69
2022/12/20 09:14:03;;;;;;;0.50;0.20;;;18.50;64.00;;;;;;4992860;28;20030;-69
2022/12/20 09:16:30;;;;;;;0.28;0.20;;;18.50;64.00;;;;;;4975901;28;20023;-69
2022/12/20 09:18:57;;;;;;;0.13;0.13;;;18.50;64.00;;;;;;4992990;28;20018;-69
2022/12/20 09:21:22;;;;;;;0.25;0.20;;;18.50;64.00;;;;;;4993044;28;20025;-69
2022/12/20 09:23:52;;;;;;;0.20;0.17;;;18.50;64.00;;;;;;4993064;28;20026;-68
2022/12/20 09:26:17;;;;;;;0.47;0.20;;;18.50;64.00;;;;;;4975481;28;20472;-69
2022/12/20 09:28:43;;;;;;;0.30;0.10;;;18.50;64.00;;;;;;4975624;28;20026;-69
2022/12/20 09:31:17;;;;;;;0.60;0.15;;;18.50;64.00;;;;;;4975717;28;20124;-68
2022/12/20 09:33:42;;;;;;;0.10;0.10;;;18.50;64.00;;;;;;4975658;28;20026;-69
2022/12/20 09:36:16;;;;;;;0.17;0.17;;;18.50;64.00;;;;;;4975496;28;20539;-69
2022/12/20 09:38:42;;;;;;;0.32;0.10;;;18.50;64.00;;;;;;4975594;28;20088;-69
2022/12/20 09:41:23;;;;;;;0.35;0.10;;;18.50;64.00;;;;;;4975495;28;20484;-68
2022/12/20 09:43:49;;;;;;;0.50;0.30;;;18.50;64.00;;;;;;4975363;28;20058;-69
2022/12/20 09:46:15;;;;;;;0.30;0.10;;;18.50;64.00;;;;;;4993000;28;20068;-69
2022/12/20 09:48:40;;;;;;;0.30;0.20;;;18.50;64.00;;;;;;4978999;28;20023;-68
2022/12/20 09:51:15;;;;;;;0.05;0.00;;;18.50;64.00;;;;;;4979319;28;20374;-69
2022/12/20 09:53:56;;;;;;;0.38;0.20;;;18.50;64.00;;;;;;4980146;28;20034;-69
2022/12/20 09:56:32;;;;;;;0.57;0.15;;;18.50;64.00;;;;;;4996596;28;20105;-68
2022/12/20 09:59:05;;;;;;;0.38;0.20;;;18.50;63.90;;;;;;4979030;28;20469;-69
2022/12/20 10:01:33;;;;;;;0.32;0.13;;;18.50;63.90;;;;;;4996697;28;20531;-68
2022/12/20 10:04:01;;;;;;;0.10;0.10;;;18.50;63.90;;;;;;4978951;28;20029;-69
2022/12/20 10:06:57;;;;;;;0.20;0.20;;;18.50;63.90;;;;;;4979169;28;20030;-68
2022/12/20 10:09:34;;;;;;;0.10;0.10;;;18.50;63.90;;;;;;4996324;28;20133;-69
2022/12/20 10:12:40;;;;;;;1.05;0.10;;;18.50;63.90;;;;;;4996271;28;20027;-69
2022/12/20 10:15:19;;;;;;;0.30;0.17;;;18.50;63.90;;;;;;4950186;28;20042;-69
2022/12/20 10:18:04;;;;;;;0.28;0.20;;;18.50;63.90;;;;;;4979060;28;20046;-69
2022/12/20 10:21:03;;;;;;;0.20;0.20;;;18.50;63.90;;;;;;4996526;28;20038;-69
2022/12/20 10:23:36;;;;;;;0.22;0.13;;;18.50;63.90;;;;;;4996171;28;20105;-68
2022/12/20 10:26:07;;;;;;;0.13;0.10;;;18.50;64.00;;;;;;4978748;28;20073;-69
2022/12/20 10:28:33;;;;;;;0.52;0.20;;;18.50;64.00;;;;;;4978811;28;20019;-69
2022/12/20 10:31:19;;;;;;;0.20;0.10;;;18.50;63.90;;;;;;4995987;28;20077;-69
2022/12/20 10:33:45;;;;;;;0.22;0.20;;;18.50;63.90;;;;;;4995835;28;20035;-69
2022/12/20 10:36:18;;;;;;;0.10;0.10;;;18.50;63.80;;;;;;4995931;28;20126;-69
2022/12/20 10:38:44;;;;;;;;;;;18.50;63.80;;;;;;4996513;28;20061;-68
2022/12/20 10:41:23;;;;;;;0.10;0.10;;;18.50;64.00;;;;;;4995732;28;19909;-69
2022/12/20 10:44:13;;;;;;;0.13;0.13;;;18.50;63.90;;;;;;4979759;28;20023;-68
2022/12/20 10:46:45;;;;;;;0.28;0.10;;;18.50;63.80;;;;;;4986506;28;20556;-68
2022/12/20 10:49:22;;;;;;;;;;;18.50;63.90;;;;;;4978941;28;20023;-69
2022/12/20 10:51:52;;;;;;;0.25;0.10;;;18.50;63.90;;;;;;4995846;28;19913;-69
2022/12/20 10:54:44;;;;;;;0.20;0.10;;;18.50;63.80;;;;;;4977966;28;20080;-68
2022/12/20 10:57:21;;;;;;;0.17;0.10;;;18.50;63.90;;;;;;4976085;28;20176;-69
2022/12/20 11:00:01;;;;;;;0.10;0.10;;;18.50;63.80;;;;;;4995486;28;20030;-69
2022/12/20 11:02:37;;;;;;;0.10;0.10;;;18.50;63.90;;;;;;4978146;28;20562;-69
2022/12/20 11:05:05;;;;;;;0.52;0.20;;;18.50;63.80;;;;;;4977966;28;20022;-68
2022/12/20 11:07:31;;;;;;;0.15;0.10;;;18.50;63.80;;;;;;4995384;28;20459;-68
2022/12/20 11:10:18;;;;;;;0.20;0.20;;;18.50;63.80;;;;;;4977588;28;20093;-68
2022/12/20 11:13:00;;;;;;;0.47;0.20;;;18.50;63.80;;;;;;4994744;28;20053;-68
2022/12/20 11:15:27;;;;;;;0.50;0.10;;;18.50;63.80;;;;;;4977982;28;20027;-68
2022/12/20 11:18:05;;;;;;;0.15;0.10;;;18.50;63.80;;;;;;4995340;28;20105;-69
2022/12/20 11:20:49;;;;;;;0.00;0.00;;;18.50;63.80;;;;;;4978240;28;20029;-68
2022/12/20 11:23:22;;;;;;;0.08;0.08;;;18.50;63.80;;;;;;4977792;28;20041;-68
2022/12/20 11:25:52;;;;;;;0.38;0.20;;;18.50;63.80;;;;;;4977722;28;20022;-69
2022/12/20 11:28:56;;;;;;;0.10;0.10;;;18.50;63.70;;;;;;4977392;28;20030;-69
2022/12/20 11:31:51;;;;;;;0.17;0.17;;;18.50;63.80;;;;;;4993004;28;20038;-68
2022/12/20 11:34:38;;;;;;;0.10;0.10;;;18.50;63.80;;;;;;4918795;29;20399;-68
2022/12/20 11:37:10;;;;;;;0.30;0.10;;;18.50;63.80;;;;;;4934822;29;20059;-69
2022/12/20 11:40:07;;;;;;;0.40;0.10;;;18.50;63.80;;;;;;4934828;29;20171;-69
2022/12/20 11:42:51;;;;;;;0.52;0.20;;;18.50;63.80;;;;;;4859705;29;20539;-69
2022/12/20 11:45:41;;;;;;;0.55;0.30;;;18.50;63.80;;;;;;4859637;29;20037;-69
2022/12/20 11:48:18;;;;;;;0.10;0.10;;;18.50;63.80;;;;;;4859566;29;20046;-69
2022/12/20 11:51:03;;;;;;;0.40;0.20;;;18.50;63.70;;;;;;4859758;29;20029;-68
2022/12/20 11:53:36;;;;;;;0.20;0.20;;;18.50;63.80;;;;;;4852246;29;20126;-69
2022/12/20 11:56:07;;;;;;;0.20;0.10;;;18.50;63.80;;;;;;4840908;29;20046;-69
2022/12/20 11:58:50;;;;;;;0.10;0.10;;;18.50;63.80;;;;;;4840715;29;20074;-69
2022/12/20 12:01:18;;;;;;;0.68;0.10;;;18.50;63.70;;;;;;4846399;29;20127;-69
2022/12/20 12:03:58;;;;;;;0.50;0.20;;;18.50;63.70;;;;;;4859339;29;20036;-69
2022/12/20 12:06:29;;;;;;;0.73;0.20;;;18.50;63.70;;;;;;4857620;29;20045;-69
2022/12/20 12:09:08;;;;;;;0.10;0.10;;;18.50;63.70;;;;;;4858703;29;20109;-69
2022/12/20 12:11:37;;;;;;;0.35;0.20;;;18.60;63.80;;;;;;4861826;29;20040;-69
2022/12/20 12:14:02;;;;;;;0.10;0.10;;;18.60;63.80;;;;;;4862556;29;20116;-69
2022/12/20 12:16:39;;;;;;;0.30;0.10;;;18.60;63.80;;;;;;4862181;29;20033;-69
2022/12/20 12:19:08;;;;;;;0.10;0.10;;;18.60;63.80;;;;;;4899477;28;20035;-69
2022/12/20 12:21:42;;;;;;;0.20;0.10;;;18.60;63.70;;;;;;4957416;28;20073;-69
2022/12/20 12:24:41;;;;;;;0.08;0.08;;;18.60;63.80;;;;;;4974262;28;20097;-68
2022/12/20 12:27:34;;;;;;;0.52;0.28;;;18.60;63.70;;;;;;4973282;28;20023;-68
2022/12/20 12:30:00;;;;;;;0.57;0.20;;;18.60;63.70;;;;;;4969976;28;20232;-69
2022/12/20 12:32:29;;;;;;;0.63;0.10;;;18.60;63.70;;;;;;4974587;28;20501;-69
2022/12/20 12:35:22;;;;;;;0.40;0.20;;;18.60;63.70;;;;;;4973295;28;20034;-69
2022/12/20 12:37:51;;;;;;;0.20;0.10;;;18.60;63.70;;;;;;4973040;28;20019;-69
2022/12/20 12:40:32;;;;;;;0.57;0.10;;;18.60;63.70;;;;;;4972988;28;20385;-69
2022/12/20 12:43:25;;;;;;;0.10;0.10;;;18.60;63.70;;;;;;4974161;28;20100;-69
2022/12/20 12:45:58;;;;;;;0.50;0.30;;;18.60;63.70;;;;;;4974405;28;20046;-69
2022/12/20 12:48:49;;;;;;;0.75;0.10;;;18.60;63.70;;;;;;4957018;28;20019;-69
2022/12/20 12:51:15;;;;;;;1.02;0.25;;;18.60;63.60;;;;;;4972900;28;20548;-69
2022/12/20 12:53:54;;;;;;;0.52;0.17;;;18.60;63.60;;;;;;4956520;28;20030;-69
2022/12/20 12:56:29;;;;;;;0.10;0.10;;;18.60;63.70;;;;;;4972684;28;20031;-69
2022/12/20 12:59:08;;;;;;;0.20;0.20;;;18.60;63.70;;;;;;4956587;28;20054;-69
2022/12/20 13:01:50;;;;;;;0.00;0.00;;;18.60;63.60;;;;;;4980972;28;20037;-68
2022/12/20 13:04:18;;;;;;;0.20;0.13;;;18.60;63.70;;;;;;4976289;28;20037;-69
2022/12/20 13:06:47;;;;;;;0.00;0.00;;;18.60;63.60;;;;;;4993195;28;20041;-69
2022/12/20 13:09:25;;;;;;;0.38;0.17;;;18.60;63.60;;;;;;4993127;28;20128;-69